Time;durP1;ratioP1;P1;durP2;ratioP2;P2;SDS_P1;SDS_P2;PMS_P1;PMS_P2;Temp;Humidity;BMP_temperature;BMP_pressure;BME280_temperature;BME280_humidity;BME280_pressure;Samples;Min_cycle;Max_cycle;Signal;HPM_P1;HPM_P2
2021/12/30 00:02:15;;;;;;;39.95;22.25;;;;;;;-1.82;64.30;99420.58;1763187;80;20984;-43
2021/12/30 00:04:43;;;;;;;39.63;21.42;;;;;;;-1.82;64.28;99421.91;1768619;80;20953;-44
2021/12/30 00:07:10;;;;;;;43.15;21.48;;;;;;;-1.85;64.16;99418.48;1777621;80;21056;-43
2021/12/30 00:09:38;;;;;;;40.48;21.68;;;;;;;-1.90;64.09;99407.36;1755959;80;21076;-44
2021/12/30 00:12:06;;;;;;;40.15;21.33;;;;;;;-2.01;64.43;99416.98;1767642;80;21786;-44
2021/12/30 00:14:34;;;;;;;38.10;21.37;;;;;;;-2.03;64.54;99415.92;1763252;80;20984;-44
2021/12/30 00:17:01;;;;;;;40.43;21.33;;;;;;;-2.08;64.63;99413.86;1768691;80;21519;-44
2021/12/30 00:19:28;;;;;;;35.10;20.32;;;;;;;-2.09;64.85;99414.92;1768471;80;21080;-44
2021/12/30 00:21:54;;;;;;;38.28;21.05;;;;;;;-2.07;64.92;99414.09;1758328;80;20998;-43
2021/12/30 00:24:21;;;;;;;35.92;20.25;;;;;;;-2.05;64.88;99424.72;1753908;80;21149;-43
2021/12/30 00:26:47;;;;;;;36.38;20.92;;;;;;;-2.02;65.02;99418.05;1765291;80;20922;-43
2021/12/30 00:29:14;;;;;;;37.17;20.95;;;;;;;-1.95;64.88;99422.00;1778407;80;21564;-43
2021/12/30 00:31:40;;;;;;;34.70;19.37;;;;;;;-1.94;64.74;99412.97;1776306;80;21477;-44
2021/12/30 00:34:07;;;;;;;32.40;18.52;;;;;;;-1.92;64.55;99408.16;1755407;80;21076;-44
2021/12/30 00:36:33;;;;;;;36.63;19.62;;;;;;;-1.91;64.36;99407.09;1776307;80;21100;-43
2021/12/30 00:39:00;;;;;;;32.60;18.48;;;;;;;-1.86;64.42;99396.97;1778415;80;21539;-43
2021/12/30 00:41:26;;;;;;;31.73;18.27;;;;;;;-1.85;64.13;99409.19;1769159;80;21029;-44
2021/12/30 00:43:53;;;;;;;34.38;18.75;;;;;;;-1.93;64.26;99415.06;1763987;80;21012;-44
2021/12/30 00:46:20;;;;;;;35.13;18.12;;;;;;;-1.93;64.42;99415.06;1750799;80;21075;-44
2021/12/30 00:48:46;;;;;;;37.35;18.92;;;;;;;-1.87;64.50;99411.31;1778333;80;21535;-43
2021/12/30 00:51:14;;;;;;;36.55;18.67;;;;;;;-1.85;64.30;99406.53;1775931;80;20981;-44
2021/12/30 00:53:41;;;;;;;36.63;18.48;;;;;;;-1.90;64.30;99403.91;1774858;80;21008;-44
2021/12/30 00:56:08;;;;;;;34.60;18.85;;;;;;;-1.94;64.38;99408.19;1750259;80;21092;-43
2021/12/30 00:58:35;;;;;;;35.00;19.40;;;;;;;-1.91;64.50;99406.30;1776788;80;21064;-44
2021/12/30 01:01:03;;;;;;;37.78;19.73;;;;;;;-1.87;64.42;99411.31;1765219;80;21150;-44
2021/12/30 01:03:30;;;;;;;37.53;20.70;;;;;;;-1.87;64.40;99409.98;1753338;80;21530;-44
2021/12/30 01:05:58;;;;;;;36.83;19.98;;;;;;;-1.86;64.61;99411.05;1760247;80;21023;-44
2021/12/30 01:08:24;;;;;;;37.85;19.85;;;;;;;-1.76;64.64;99399.55;1767379;80;21511;-44
2021/12/30 01:10:52;;;;;;;36.17;19.05;;;;;;;-1.67;64.54;99407.19;1747444;82;21013;-43
2021/12/30 01:13:22;;;;;;;40.12;21.20;;;;;;;-1.55;64.42;99402.84;1772325;80;21157;-43
2021/12/30 01:16:15;;;;;;;43.50;20.92;;;;;;;-1.46;64.34;99397.98;1773966;80;21016;-44
2021/12/30 01:18:25;;;;;;;35.63;20.85;;;;;;;-1.35;64.06;99402.65;1756197;80;21534;-43
2021/12/30 01:20:48;;;;;;;34.10;19.60;;;;;;;-1.29;63.78;99400.73;1736840;82;21517;-44
2021/12/30 01:23:15;;;;;;;38.50;19.87;;;;;;;-1.23;63.59;99404.95;1740100;80;21091;-44
2021/12/30 01:25:43;;;;;;;35.50;19.82;;;;;;;-1.17;63.34;99402.50;1748715;80;21246;-43
2021/12/30 01:28:09;;;;;;;36.53;20.10;;;;;;;-1.13;63.11;99402.98;1776027;80;21064;-43
2021/12/30 01:30:37;;;;;;;32.10;18.55;;;;;;;-1.10;62.99;99402.41;1747656;80;21542;-44
2021/12/30 01:33:04;;;;;;;35.05;19.92;;;;;;;-1.07;62.80;99403.73;1758246;79;21036;-44
2021/12/30 01:35:31;;;;;;;33.80;18.57;;;;;;;-1.07;62.71;99403.20;1799748;79;20989;-44
2021/12/30 01:38:00;;;;;;;32.53;19.00;;;;;;;-1.05;62.70;99405.55;1775799;80;21143;-44
2021/12/30 01:40:30;;;;;;;33.88;18.77;;;;;;;-1.01;62.42;99401.25;1778229;80;20960;-43
2021/12/30 01:42:57;;;;;;;34.73;18.25;;;;;;;-0.99;62.25;99403.90;1763083;80;20989;-44
2021/12/30 01:45:25;;;;;;;32.70;18.07;;;;;;;-0.95;62.22;99394.27;1775960;80;20957;-44
2021/12/30 01:47:54;;;;;;;31.40;17.65;;;;;;;-0.92;62.07;99404.34;1761194;80;21020;-44
2021/12/30 01:50:22;;;;;;;33.48;19.00;;;;;;;-0.91;61.84;99400.61;1757783;80;21114;-44
2021/12/30 01:52:48;;;;;;;35.03;20.45;;;;;;;-0.92;61.66;99406.23;1766926;80;21068;-44
2021/12/30 01:55:16;;;;;;;33.28;18.77;;;;;;;-0.95;61.64;99405.45;1750488;80;21014;-44
2021/12/30 01:57:43;;;;;;;37.20;19.82;;;;;;;-1.09;61.61;99412.52;1760957;80;20941;-43
2021/12/30 02:00:14;;;;;;;37.98;19.90;;;;;;;-1.34;62.17;99418.33;1774797;80;21545;-44
2021/12/30 02:02:41;;;;;;;40.25;20.57;;;;;;;-1.50;62.67;99426.17;1746853;80;21124;-44
2021/12/30 02:05:09;;;;;;;38.35;18.60;;;;;;;-1.58;63.10;99428.11;1759945;80;21022;-43
2021/12/30 02:07:36;;;;;;;35.73;20.17;;;;;;;-1.61;63.15;99426.55;1739701;81;21045;-43
2021/12/30 02:10:06;;;;;;;33.48;18.52;;;;;;;-1.64;63.25;99429.21;1747737;81;21054;-44
2021/12/30 02:12:36;;;;;;;37.13;18.75;;;;;;;-1.60;63.29;99432.92;1761583;81;20998;-43
2021/12/30 02:15:07;;;;;;;37.95;19.12;;;;;;;-1.60;63.38;99432.92;1745759;81;21072;-43
2021/12/30 02:20:51;;;;;;;33.38;17.92;;;;;;;-1.48;63.43;99429.36;1820104;78;22701;-42
2021/12/30 02:23:28;;;;;;;34.35;18.37;;;;;;;-1.46;63.41;99429.88;1772944;80;20925;-42
2021/12/30 02:25:58;;;;;;;31.93;18.85;;;;;;;-1.40;63.29;99426.62;1753514;80;21876;-42
2021/12/30 02:28:30;;;;;;;38.63;18.67;;;;;;;-1.41;63.28;99429.84;1763021;80;20957;-42
2021/12/30 02:31:01;;;;;;;36.10;18.40;;;;;;;-1.43;63.24;99429.31;1782441;80;20925;-42
2021/12/30 02:33:28;;;;;;;39.23;20.20;;;;;;;-1.47;63.37;99433.61;1775446;79;20972;-42
2021/12/30 02:35:56;;;;;;;37.48;20.50;;;;;;;-1.51;63.38;99432.59;1782261;79;21539;-42
2021/12/30 02:38:23;;;;;;;42.80;20.95;;;;;;;-1.55;63.43;99429.44;1784054;79;21101;-42
2021/12/30 02:40:55;;;;;;;38.67;20.82;;;;;;;-1.57;63.47;99427.58;1767832;80;20945;-42
2021/12/30 02:43:29;;;;;;;40.70;22.52;;;;;;;-1.61;63.69;99435.32;1756941;80;21539;-42
2021/12/30 02:45:57;;;;;;;37.30;20.05;;;;;;;-1.65;63.72;99438.28;1754772;80;20937;-42
2021/12/30 02:48:28;;;;;;;41.73;21.62;;;;;;;-1.70;63.73;99436.98;1784275;80;21001;-42
2021/12/30 02:50:58;;;;;;;40.12;20.85;;;;;;;-1.73;63.90;99440.17;1782577;79;21086;-42
2021/12/30 02:53:24;;;;;;;39.50;21.20;;;;;;;-1.74;63.95;99455.86;1772212;79;20929;-43
2021/12/30 02:55:53;;;;;;;35.50;19.52;;;;;;;-1.80;64.09;99456.45;1753420;80;20957;-42
2021/12/30 02:58:22;;;;;;;35.83;20.90;;;;;;;-1.80;64.20;99463.62;1753284;80;21049;-42
2021/12/30 03:00:49;;;;;;;31.33;19.00;;;;;;;-1.87;64.29;99465.78;1753186;80;21555;-42
2021/12/30 03:03:19;;;;;;;30.72;17.95;;;;;;;-1.87;64.33;99469.77;1774821;80;21111;-42
2021/12/30 03:05:47;;;;;;;32.10;18.15;;;;;;;-1.92;64.37;99469.27;1753567;80;21000;-42
2021/12/30 03:08:14;;;;;;;33.05;18.67;;;;;;;-1.96;64.36;99471.42;1774139;80;20965;-42
2021/12/30 03:10:41;;;;;;;37.95;18.73;;;;;;;-2.00;64.50;99469.05;1763383;80;21007;-42
2021/12/30 03:13:10;;;;;;;32.53;18.00;;;;;;;-2.03;64.63;99468.28;1753234;80;21029;-42
2021/12/30 03:15:37;;;;;;;30.62;16.55;;;;;;;-2.09;64.84;99477.34;1754281;80;21046;-42
2021/12/30 03:18:05;;;;;;;27.35;15.60;;;;;;;-2.12;64.96;99484.50;1755396;80;21016;-42
2021/12/30 03:20:35;;;;;;;31.23;16.52;;;;;;;-2.16;65.11;99493.56;1744710;80;21531;-42
2021/12/30 03:23:02;;;;;;;29.70;15.98;;;;;;;-2.18;65.27;99492.26;1752926;79;21036;-42
2021/12/30 03:25:30;;;;;;;32.75;16.27;;;;;;;-2.18;65.30;99492.26;1758875;79;21534;-42
2021/12/30 03:27:58;;;;;;;27.80;15.75;;;;;;;-2.18;65.37;99487.75;1754691;80;21094;-42
2021/12/30 03:30:25;;;;;;;30.30;16.20;;;;;;;-2.18;65.47;99498.89;1743040;81;21037;-42
2021/12/30 03:32:52;;;;;;;28.83;15.50;;;;;;;-2.24;65.59;99500.24;1742446;81;20965;-42
2021/12/30 03:35:18;;;;;;;30.25;17.07;;;;;;;-2.25;65.65;99502.63;1742275;81;20986;-42
2021/12/30 03:37:46;;;;;;;27.13;14.35;;;;;;;-2.26;65.85;99509.00;1754663;81;21037;-42
2021/12/30 03:40:15;;;;;;;28.30;13.45;;;;;;;-2.28;65.96;99501.06;1772908;79;21076;-42
2021/12/30 03:42:42;;;;;;;24.27;13.40;;;;;;;-2.35;66.19;99502.66;1748902;81;20962;-42
2021/12/30 03:45:11;;;;;;;24.77;12.23;;;;;;;-2.40;66.34;99506.66;1770005;81;20989;-42
2021/12/30 03:47:40;;;;;;;23.00;12.70;;;;;;;-2.42;66.38;99513.33;1750254;81;21053;-42
2021/12/30 03:50:09;;;;;;;24.63;9.70;;;;;;;-2.55;66.46;99510.69;1742791;82;21045;-42
2021/12/30 03:52:38;;;;;;;27.98;13.45;;;;;;;-2.57;66.63;99510.18;1742398;81;21052;-42
2021/12/30 03:55:07;;;;;;;27.80;13.22;;;;;;;-2.63;66.80;99509.92;1742553;81;21531;-42
2021/12/30 03:57:33;;;;;;;28.75;12.88;;;;;;;-2.62;66.86;99518.16;1742781;81;21008;-42
2021/12/30 04:00:00;;;;;;;26.65;13.60;;;;;;;-2.63;66.88;99515.23;1745257;81;21049;-42
2021/12/30 04:02:26;;;;;;;27.37;14.10;;;;;;;-2.69;66.85;99517.62;1755662;81;21028;-42
2021/12/30 04:04:53;;;;;;;26.77;12.93;;;;;;;-2.73;67.10;99516.58;1742432;81;21855;-42
2021/12/30 04:07:20;;;;;;;22.37;11.55;;;;;;;-2.73;67.24;99518.70;1744837;81;20934;-42
2021/12/30 04:09:46;;;;;;;23.05;12.70;;;;;;;-2.70;67.17;99526.64;1742722;81;21057;-42
2021/12/30 04:12:14;;;;;;;24.60;11.40;;;;;;;-2.75;67.38;99522.14;1759632;81;20954;-42
2021/12/30 04:14:41;;;;;;;21.97;11.05;;;;;;;-2.75;67.45;99521.34;1755526;81;21538;-42
2021/12/30 04:17:08;;;;;;;25.85;11.93;;;;;;;-2.77;67.39;99524.81;1742658;81;21146;-42
2021/12/30 04:19:34;;;;;;;24.90;12.98;;;;;;;-2.70;67.50;99523.98;1721192;81;20960;-42
2021/12/30 04:22:01;;;;;;;22.62;12.00;;;;;;;-2.61;67.34;99526.36;1777250;80;21025;-42
2021/12/30 04:24:28;;;;;;;26.90;12.65;;;;;;;-2.54;67.07;99528.21;1786966;80;20984;-42
2021/12/30 04:26:55;;;;;;;25.40;12.07;;;;;;;-2.49;66.88;99536.16;1782057;80;21021;-42
2021/12/30 04:29:23;;;;;;;29.48;13.32;;;;;;;-2.50;66.74;99535.89;1755794;81;21126;-42
2021/12/30 04:31:49;;;;;;;19.85;11.10;;;;;;;-2.54;66.52;99532.19;1763021;80;20957;-42
2021/12/30 04:34:16;;;;;;;22.45;12.40;;;;;;;-2.57;66.47;99535.39;1756398;80;20945;-42
2021/12/30 04:36:43;;;;;;;25.68;12.33;;;;;;;-2.59;66.34;99541.48;1755966;80;21550;-42
2021/12/30 04:39:10;;;;;;;25.37;12.18;;;;;;;-2.62;66.28;99541.23;1755755;80;21072;-42
2021/12/30 04:41:36;;;;;;;24.63;12.47;;;;;;;-2.62;66.21;99544.69;1782580;80;21054;-42
2021/12/30 04:44:04;;;;;;;21.65;12.07;;;;;;;-2.58;66.31;99544.41;1787114;80;20992;-42
2021/12/30 04:46:33;;;;;;;20.23;12.25;;;;;;;-2.55;66.20;99545.19;1786824;79;20968;-42
2021/12/30 04:49:00;;;;;;;17.70;11.07;;;;;;;-2.49;65.94;99543.33;1787275;80;20972;-42
2021/12/30 04:51:26;;;;;;;23.55;13.40;;;;;;;-2.47;65.88;99543.30;1783827;80;21684;-42
2021/12/30 04:53:53;;;;;;;22.55;12.78;;;;;;;-2.44;65.88;99546.77;1768841;79;21084;-42
2021/12/30 04:56:20;;;;;;;26.85;13.35;;;;;;;-2.40;65.93;99545.69;1794495;79;20953;-42
2021/12/30 04:58:47;;;;;;;21.95;12.55;;;;;;;-2.33;65.76;99553.65;1786881;80;20934;-42
2021/12/30 05:01:13;;;;;;;21.90;11.95;;;;;;;-2.31;65.75;99557.34;1782550;79;21605;-42
2021/12/30 05:03:40;;;;;;;21.52;12.03;;;;;;;-2.25;65.49;99558.39;1756054;81;21091;-42
2021/12/30 05:06:07;;;;;;;23.75;11.73;;;;;;;-2.22;65.39;99556.52;1755861;81;21185;-42
2021/12/30 05:08:33;;;;;;;23.87;12.23;;;;;;;-2.16;65.20;99561.81;1756201;80;21518;-42
2021/12/30 05:11:00;;;;;;;15.83;9.63;;;;;;;-2.13;65.06;99563.39;1755888;81;21068;-42
2021/12/30 05:13:26;;;;;;;16.62;9.60;;;;;;;-2.08;64.78;99559.39;1756107;81;20965;-42
2021/12/30 05:15:53;;;;;;;12.82;8.15;;;;;;;-2.09;64.42;99568.97;1755884;81;21026;-42
2021/12/30 05:18:29;;;;;;;12.00;8.10;;;;;;;-2.13;64.24;99556.75;1755789;80;21139;-42
2021/12/30 05:20:49;;;;;;;15.58;8.73;;;;;;;-2.18;64.13;99565.29;1746756;80;21014;-42
2021/12/30 05:23:16;;;;;;;16.80;8.48;;;;;;;-2.22;64.13;99559.17;1755813;80;20973;-42
2021/12/30 05:25:44;;;;;;;14.28;8.23;;;;;;;-2.23;64.06;99566.87;1755721;80;20990;-42
2021/12/30 05:28:12;;;;;;;12.65;8.15;;;;;;;-2.23;63.93;99567.43;1755837;81;21025;-42
2021/12/30 05:30:38;;;;;;;13.83;8.10;;;;;;;-2.29;63.85;99571.95;1781037;80;21468;-42
2021/12/30 05:33:05;;;;;;;18.17;8.98;;;;;;;-2.37;64.00;99565.08;1786982;80;21542;-42
2021/12/30 05:35:32;;;;;;;17.50;8.98;;;;;;;-2.41;63.95;99571.44;1773247;80;20981;-42
2021/12/30 05:38:02;;;;;;;14.68;9.30;;;;;;;-2.48;64.24;99574.13;1757636;80;21004;-42
2021/12/30 05:40:29;;;;;;;15.05;9.18;;;;;;;-2.49;64.29;99577.84;1759508;80;21107;-42
2021/12/30 05:42:55;;;;;;;16.73;9.90;;;;;;;-2.51;64.35;99582.07;1762791;80;21152;-42
2021/12/30 05:45:22;;;;;;;16.95;9.03;;;;;;;-2.53;64.43;99582.89;1775442;80;21045;-42
2021/12/30 05:47:51;;;;;;;15.30;9.35;;;;;;;-2.53;64.36;99581.56;1755828;80;21004;-42
2021/12/30 05:50:21;;;;;;;16.50;9.20;;;;;;;-2.59;64.40;99589.27;1761414;80;21008;-42
2021/12/30 05:52:47;;;;;;;;;;;;;;;-2.61;64.37;99587.39;1770831;80;21028;-42
2021/12/30 05:55:15;;;;;;;19.15;10.08;;;;;;;-2.66;64.53;99594.03;1755848;80;21913;-42
2021/12/30 05:57:42;;;;;;;17.32;9.80;;;;;;;-2.78;64.89;99592.20;1762739;80;20996;-42
2021/12/30 06:00:13;;;;;;;17.87;10.30;;;;;;;-2.74;64.90;99595.91;1777906;80;21549;-42
2021/12/30 06:02:40;;;;;;;18.35;10.78;;;;;;;-2.69;64.88;99605.19;1767341;80;21482;-42
2021/12/30 06:05:08;;;;;;;15.70;9.50;;;;;;;-2.68;64.88;99605.46;1761202;80;21048;-42
2021/12/30 06:07:36;;;;;;;16.73;10.13;;;;;;;-2.72;64.61;99610.52;1755968;80;21028;-42
2021/12/30 06:10:05;;;;;;;15.38;9.60;;;;;;;-2.80;64.64;99609.70;1755531;81;21025;-42
2021/12/30 06:12:33;;;;;;;;;;;;;;;-2.89;64.78;99622.43;1764982;80;21044;-42
2021/12/30 06:15:00;;;;;;;14.35;9.25;;;;;;;-2.93;64.87;99616.06;1769660;80;20442;-42
2021/12/30 06:17:29;;;;;;;19.67;10.72;;;;;;;-2.99;65.15;99615.79;1760631;79;21491;-42
2021/12/30 06:19:55;;;;;;;16.85;9.93;;;;;;;-2.96;65.11;99620.59;1780595;80;21079;-42
2021/12/30 06:22:22;;;;;;;18.32;10.50;;;;;;;-2.94;64.95;99633.03;1780316;79;21012;-42
2021/12/30 06:24:49;;;;;;;17.52;9.88;;;;;;;-2.98;65.23;99631.45;1783539;78;22029;-42
2021/12/30 06:27:15;;;;;;;18.15;10.15;;;;;;;-2.96;65.08;99627.22;1783148;80;21526;-42
2021/12/30 06:29:42;;;;;;;16.62;9.90;;;;;;;-2.97;65.09;99630.39;1783173;80;21087;-42
2021/12/30 06:32:09;;;;;;;18.98;10.03;;;;;;;-2.98;64.93;99643.38;1763822;80;21125;-42
2021/12/30 06:34:37;;;;;;;14.78;9.63;;;;;;;-2.98;64.99;99647.89;1758280;79;21078;-42
2021/12/30 06:37:03;;;;;;;20.10;10.30;;;;;;;-2.98;65.32;99645.23;1758141;81;20925;-42
2021/12/30 06:39:30;;;;;;;20.48;10.00;;;;;;;-2.97;65.04;99642.86;1758640;80;21503;-42
2021/12/30 06:41:57;;;;;;;15.53;9.85;;;;;;;-3.02;65.14;99642.85;1769642;80;21017;-42
2021/12/30 06:44:23;;;;;;;17.70;10.30;;;;;;;-3.01;65.20;99643.92;1758084;81;21154;-42
2021/12/30 06:46:57;;;;;;;17.73;10.53;;;;;;;-3.00;65.15;99648.14;1753285;81;21000;-42
2021/12/30 06:49:22;;;;;;;17.57;10.55;;;;;;;-2.98;65.14;99642.59;1766917;80;21000;-42
2021/12/30 06:51:48;;;;;;;14.47;9.95;;;;;;;-2.93;65.07;99643.92;1786892;80;20989;-42
2021/12/30 06:54:15;;;;;;;17.02;9.98;;;;;;;-2.91;65.11;99649.77;1787027;80;21558;-42
2021/12/30 06:56:43;;;;;;;18.17;9.60;;;;;;;-2.84;64.96;99650.29;1767038;80;21516;-42
2021/12/30 06:59:15;;;;;;;15.00;9.80;;;;;;;-2.81;64.98;99649.78;1757923;81;21003;-42
2021/12/30 07:01:43;;;;;;;17.07;10.72;;;;;;;-2.77;64.96;99650.31;1779483;80;21531;-42
2021/12/30 07:04:10;;;;;;;17.23;10.48;;;;;;;-2.77;64.79;99655.63;1784121;80;21814;-42
2021/12/30 07:06:37;;;;;;;18.70;11.25;;;;;;;-2.80;64.87;99652.67;1758428;80;21028;-42
2021/12/30 07:09:03;;;;;;;18.95;10.98;;;;;;;-2.84;64.68;99652.94;1758620;80;21112;-42
2021/12/30 07:11:30;;;;;;;17.95;11.80;;;;;;;-2.90;64.85;99653.46;1758236;81;21011;-42
2021/12/30 07:13:57;;;;;;;20.65;12.07;;;;;;;-2.92;64.88;99650.82;1758100;81;21017;-42
2021/12/30 07:16:24;;;;;;;19.62;12.33;;;;;;;-2.97;64.85;99649.48;1763154;80;21072;-42
2021/12/30 07:18:51;;;;;;;19.30;11.83;;;;;;;-3.05;64.98;99656.65;1780558;79;21649;-42
2021/12/30 07:21:17;;;;;;;22.95;13.03;;;;;;;-3.11;65.05;99650.01;1758241;81;21115;-42
2021/12/30 07:23:45;;;;;;;20.70;13.00;;;;;;;-3.13;65.26;99648.13;1758184;81;21048;-42
2021/12/30 07:26:11;;;;;;;19.87;12.60;;;;;;;-3.12;65.48;99640.45;1758076;81;21040;-42
2021/12/30 07:28:38;;;;;;;23.52;13.43;;;;;;;-3.05;65.57;99651.34;1758408;80;20972;-42
2021/12/30 07:31:05;;;;;;;20.05;11.80;;;;;;;-2.97;65.34;99652.14;1758403;81;21063;-42
2021/12/30 07:33:32;;;;;;;20.80;13.28;;;;;;;-2.93;65.25;99662.48;1758146;81;21185;-42
2021/12/30 07:35:59;;;;;;;21.60;13.25;;;;;;;-2.92;65.07;99666.21;1758391;80;21294;-42
2021/12/30 07:38:26;;;;;;;22.70;13.48;;;;;;;-2.99;64.93;99670.16;1758385;80;21036;-42
2021/12/30 07:40:53;;;;;;;24.90;14.80;;;;;;;-3.00;65.04;99671.25;1772974;80;20941;-42
2021/12/30 07:43:19;;;;;;;25.08;14.03;;;;;;;-3.02;65.17;99666.72;1765684;80;21515;-42
2021/12/30 07:45:46;;;;;;;25.00;15.58;;;;;;;-2.96;65.26;99668.33;1760665;80;21193;-42
2021/12/30 07:48:13;;;;;;;29.23;16.50;;;;;;;-2.91;65.00;99661.18;1789239;80;20953;-42
2021/12/30 07:50:40;;;;;;;27.22;15.45;;;;;;;-2.94;65.27;99656.91;1789480;80;21008;-42
2021/12/30 07:53:07;;;;;;;26.85;15.65;;;;;;;-2.92;65.27;99662.76;1789534;79;21029;-42
2021/12/30 07:55:34;;;;;;;28.87;16.60;;;;;;;-2.94;65.13;99670.97;1789309;80;21134;-42
2021/12/30 07:58:00;;;;;;;28.40;16.48;;;;;;;-2.96;65.14;99673.11;1759029;80;21901;-42
2021/12/30 08:00:27;;;;;;;31.20;16.15;;;;;;;-2.99;65.36;99676.80;1758017;81;21008;-42
2021/12/30 08:02:55;;;;;;;26.12;16.45;;;;;;;-2.96;65.28;99677.09;1779178;80;20992;-42
2021/12/30 08:05:23;;;;;;;28.70;16.65;;;;;;;-2.97;65.23;99673.36;1763345;80;21527;-42
2021/12/30 08:07:49;;;;;;;26.65;16.37;;;;;;;-2.96;65.19;99674.95;1765315;80;21084;-42
2021/12/30 08:10:18;;;;;;;26.75;16.10;;;;;;;-2.98;65.18;99675.73;1758180;81;21124;-42
2021/12/30 08:12:48;;;;;;;25.70;16.10;;;;;;;-3.01;65.26;99664.34;1765998;80;20944;-42
2021/12/30 08:15:14;;;;;;;32.42;16.70;;;;;;;-3.00;65.33;99667.27;1783190;80;21061;-42
2021/12/30 08:17:42;;;;;;;26.73;16.23;;;;;;;-3.02;65.53;99660.09;1759042;80;21496;-42
2021/12/30 08:20:11;;;;;;;26.30;16.55;;;;;;;-2.97;65.44;99663.55;1758112;81;21386;-42
2021/12/30 08:22:38;;;;;;;29.12;16.25;;;;;;;-2.96;65.39;99668.33;1760268;80;21731;-42
2021/12/30 08:25:08;;;;;;;33.83;18.17;;;;;;;-2.92;65.21;99671.52;1788282;80;21527;-42
2021/12/30 08:27:35;;;;;;;30.00;17.40;;;;;;;-2.93;65.27;99675.22;1788866;79;20933;-42
2021/12/30 08:30:01;;;;;;;29.37;17.90;;;;;;;-2.90;65.31;99676.54;1787974;80;20964;-42
2021/12/30 08:32:30;;;;;;;30.50;18.05;;;;;;;-2.87;65.39;99673.37;1785275;80;20914;-42
2021/12/30 08:34:56;;;;;;;27.55;17.12;;;;;;;-2.80;65.17;99679.20;1786880;80;21824;-42
2021/12/30 08:37:23;;;;;;;27.13;17.05;;;;;;;-2.76;64.98;99676.31;1761740;80;21052;-42
2021/12/30 08:39:49;;;;;;;33.70;16.80;;;;;;;-2.74;64.84;99676.30;1778632;79;21020;-41
2021/12/30 08:42:26;;;;;;;32.15;17.57;;;;;;;-2.71;64.62;99670.45;1758266;81;20965;-41
2021/12/30 08:44:56;;;;;;;31.68;17.00;;;;;;;-2.73;64.69;99667.29;1760112;80;21033;-42
2021/12/30 08:47:23;;;;;;;32.00;16.95;;;;;;;-2.71;64.69;99668.36;1774093;80;22022;-42
2021/12/30 08:49:50;;;;;;;32.17;17.80;;;;;;;-2.70;64.79;99672.05;1789357;79;21000;-42
2021/12/30 08:52:20;;;;;;;30.30;17.50;;;;;;;-2.64;64.76;99671.53;1789376;80;20953;-43
2021/12/30 08:54:47;;;;;;;28.70;17.48;;;;;;;-2.61;64.63;99672.87;1789525;80;20985;-43
2021/12/30 08:57:15;;;;;;;29.75;17.35;;;;;;;-2.63;64.66;99669.16;1789413;80;21059;-42
2021/12/30 08:59:43;;;;;;;29.80;18.70;;;;;;;-2.60;64.55;99677.90;1765616;80;21819;-42
2021/12/30 09:02:11;;;;;;;28.52;17.75;;;;;;;-2.62;64.66;99674.73;1776543;79;20902;-42
2021/12/30 09:04:42;;;;;;;28.92;17.73;;;;;;;-2.58;64.86;99674.46;1765677;80;21479;-43
2021/12/30 09:07:07;;;;;;;30.43;17.17;;;;;;;-2.46;64.69;99674.98;1771099;80;21072;-43
2021/12/30 09:09:35;;;;;;;31.40;19.02;;;;;;;-2.85;64.34;99596.96;1786811;79;21547;-42
2021/12/30 09:12:04;;;;;;;28.62;17.42;;;;;;;-2.46;64.05;99661.70;1789420;80;21507;-42
2021/12/30 09:14:31;;;;;;;22.30;13.78;;;;;;;-2.50;64.23;99652.69;1783206;80;21083;-42
2021/12/30 09:16:58;;;;;;;28.57;17.60;;;;;;;-2.42;64.35;99661.43;1765159;80;20937;-42
2021/12/30 09:19:25;;;;;;;28.27;18.52;;;;;;;-2.38;64.25;99665.17;1758186;81;21064;-43
2021/12/30 09:21:52;;;;;;;28.47;17.77;;;;;;;-2.34;64.16;99668.88;1758703;80;20981;-42
2021/12/30 09:24:19;;;;;;;28.52;17.67;;;;;;;-2.29;64.13;99670.20;1790618;80;21004;-42
2021/12/30 09:26:46;;;;;;;32.73;20.17;;;;;;;-2.27;63.78;99674.70;1770169;80;21015;-43
2021/12/30 09:29:14;;;;;;;31.25;19.23;;;;;;;-2.28;63.60;99667.81;1762663;80;21467;-42
2021/12/30 09:31:44;;;;;;;27.93;18.35;;;;;;;-2.31;63.87;99664.34;1775624;80;21385;-42
2021/12/30 09:34:11;;;;;;;32.45;19.87;;;;;;;-2.30;63.80;99660.64;1760584;81;21032;-43
2021/12/30 09:36:38;;;;;;;32.42;20.10;;;;;;;-2.32;63.81;99656.64;1760740;80;21199;-43
2021/12/30 09:39:08;;;;;;;31.17;19.62;;;;;;;-2.35;63.82;99651.88;1760392;81;20960;-43
2021/12/30 09:41:37;;;;;;;22.90;14.55;;;;;;;-2.37;63.95;99652.14;1762664;80;20994;-43
2021/12/30 09:44:07;;;;;;;23.42;15.32;;;;;;;-2.41;63.89;99645.77;1760654;81;21475;-43
2021/12/30 09:46:34;;;;;;;28.77;19.30;;;;;;;-2.43;64.06;99643.94;1762104;80;26532;-43
2021/12/30 09:49:05;;;;;;;29.85;18.55;;;;;;;-2.42;64.21;99643.41;1789921;80;21131;-43
2021/12/30 09:51:33;;;;;;;30.60;18.87;;;;;;;-2.40;64.18;99643.91;1782430;80;20997;-43
2021/12/30 09:54:01;;;;;;;34.18;19.42;;;;;;;-2.39;64.20;99643.66;1760601;81;21593;-43
2021/12/30 09:56:29;;;;;;;28.42;18.20;;;;;;;-2.37;64.08;99647.38;1760368;81;21019;-43
2021/12/30 09:58:55;;;;;;;32.98;19.40;;;;;;;-2.41;64.15;99643.12;1760848;80;21021;-43
2021/12/30 10:01:22;;;;;;;32.38;19.60;;;;;;;-2.39;64.34;99639.67;1760528;81;22308;-44
2021/12/30 10:03:52;;;;;;;30.72;18.40;;;;;;;-2.35;64.14;99643.38;1762048;80;21015;-43
2021/12/30 10:06:18;;;;;;;28.05;18.27;;;;;;;-2.33;64.19;99641.80;1726948;80;21041;-44
2021/12/30 10:08:57;;;;;;;29.00;18.02;;;;;;;-2.26;64.17;99636.46;1791599;80;21503;-43
2021/12/30 10:11:25;;;;;;;33.48;19.65;;;;;;;-2.16;64.16;99638.83;1767360;80;21471;-43
2021/12/30 10:13:56;;;;;;;28.57;18.77;;;;;;;-2.06;63.64;99638.28;1774546;79;21981;-40
2021/12/30 10:16:23;;;;;;;32.85;20.52;;;;;;;-2.07;63.52;99636.69;1788953;80;20972;-39
2021/12/30 10:18:55;;;;;;;31.33;19.52;;;;;;;-2.09;63.55;99640.16;1783645;80;21902;-39
2021/12/30 10:21:33;;;;;;;36.00;17.98;;;;;;;-2.14;63.91;99643.36;1778594;80;21549;-43
2021/12/30 10:24:03;;;;;;;30.02;18.92;;;;;;;-2.16;63.90;99641.48;1778892;78;21032;-43
2021/12/30 10:26:30;;;;;;;29.15;17.80;;;;;;;-2.27;64.04;99627.42;1795446;78;21101;-44
2021/12/30 10:29:00;;;;;;;28.00;18.82;;;;;;;-2.33;64.21;99621.36;1821701;78;21004;-44
2021/12/30 10:31:32;;;;;;;31.70;19.73;;;;;;;-2.33;64.21;99621.88;1787841;78;21316;-43
2021/12/30 10:34:03;;;;;;;31.23;19.12;;;;;;;-2.35;64.18;99611.52;1758665;80;21455;-43
2021/12/30 10:36:36;;;;;;;31.82;19.90;;;;;;;-2.35;64.17;99604.89;1758022;81;21031;-43
2021/12/30 10:39:31;;;;;;;31.15;19.15;;;;;;;-2.36;64.13;99607.27;1760122;80;21116;-43
2021/12/30 10:42:21;;;;;;;34.88;20.10;;;;;;;-2.34;64.13;99599.84;1772062;80;20985;-42
2021/12/30 10:44:53;;;;;;;34.03;19.62;;;;;;;-2.36;64.16;99591.34;1786447;79;20917;-42
2021/12/30 10:47:27;;;;;;;36.83;20.23;;;;;;;-2.36;64.07;99591.34;1788723;80;21017;-43
2021/12/30 10:50:04;;;;;;;32.03;18.90;;;;;;;-2.31;64.02;99590.53;1785458;80;21036;-43
2021/12/30 10:52:32;;;;;;;36.25;20.08;;;;;;;-2.28;63.93;99594.80;1786930;79;21115;-43
2021/12/30 10:55:03;;;;;;;33.23;20.43;;;;;;;-2.30;63.59;99591.60;1788679;80;20911;-43
2021/12/30 10:57:29;;;;;;;35.83;20.57;;;;;;;-2.33;63.93;99580.73;1787801;79;21020;-43
2021/12/30 10:59:56;;;;;;;32.85;20.20;;;;;;;-2.29;63.78;99581.25;1784642;80;21492;-43
2021/12/30 11:02:28;;;;;;;35.23;21.62;;;;;;;-2.30;63.77;99580.98;1781130;79;21005;-42
2021/12/30 11:05:00;;;;;;;36.83;21.40;;;;;;;-2.30;63.73;99575.67;1739674;81;21957;-42
2021/12/30 11:07:46;;;;;;;33.60;20.90;;;;;;;-2.30;64.00;99577.00;1778122;80;20964;-43
2021/12/30 11:10:18;;;;;;;35.45;21.20;;;;;;;-2.28;63.99;99576.20;1782963;79;20948;-43
2021/12/30 11:12:47;;;;;;;39.65;20.68;;;;;;;-2.25;63.77;99578.31;1777397;80;21044;-42
2021/12/30 11:15:27;;;;;;;35.08;20.43;;;;;;;-2.24;63.87;99578.58;1765992;79;21017;-42
2021/12/30 11:18:15;;;;;;;37.70;21.48;;;;;;;-2.22;63.58;99579.09;1780348;80;21043;-42
2021/12/30 11:20:46;;;;;;;35.08;20.12;;;;;;;-2.23;63.53;99578.81;1781320;80;20958;-43
2021/12/30 11:23:16;;;;;;;35.58;19.42;;;;;;;-2.26;63.78;99584.68;1759967;80;21780;-42
2021/12/30 11:25:44;;;;;;;31.82;19.37;;;;;;;-2.24;63.84;99586.55;1779297;80;20929;-43
2021/12/30 11:28:10;;;;;;;33.13;19.12;;;;;;;-2.21;63.67;99591.31;1786465;80;21017;-43